createdAt,value
2022-09-06T00:00:35.946Z,100561.47
2022-09-06T00:05:41.418Z,100551.81
2022-09-06T00:10:44.106Z,100548.53
2022-09-06T00:15:47.108Z,100547.91
2022-09-06T00:20:51.109Z,100552.59
2022-09-06T00:25:53.861Z,100552.19
2022-09-06T00:30:57.225Z,100550.53
2022-09-06T00:36:01.704Z,100548.81
2022-09-06T00:41:04.818Z,100547.56
2022-09-06T00:46:09.610Z,100550.00
2022-09-06T00:51:14.726Z,100549.00
2022-09-06T00:56:17.434Z,100545.50
2022-09-06T01:01:20.380Z,100551.81
2022-09-06T01:06:27.350Z,100557.56
2022-09-06T01:11:49.573Z,100547.94
2022-09-06T01:16:58.434Z,100546.47
2022-09-06T01:22:14.402Z,100538.00
2022-09-06T01:27:50.076Z,100545.53
2022-09-06T01:32:58.067Z,100551.00
2022-09-06T01:38:01.164Z,100546.81
2022-09-06T01:43:08.993Z,100548.03
2022-09-06T01:48:28.905Z,100542.25
2022-09-06T01:53:45.876Z,100546.31
2022-09-06T01:59:12.427Z,100538.91
2022-09-06T02:04:21.670Z,100547.66
2022-09-06T02:09:26.941Z,100529.00
2022-09-06T02:14:34.036Z,100534.63
2022-09-06T02:19:41.044Z,100526.38
2022-09-06T02:24:45.588Z,100530.66
2022-09-06T02:29:48.364Z,100524.09
2022-09-06T02:34:53.831Z,100519.56
2022-09-06T02:39:56.704Z,100518.28
2022-09-06T02:44:59.332Z,100521.41
2022-09-06T02:50:03.407Z,100536.34
2022-09-06T02:55:07.262Z,100548.09
2022-09-06T03:00:11.458Z,100538.28
2022-09-06T03:05:15.543Z,100535.75
2022-09-06T03:10:20.476Z,100545.00
2022-09-06T03:15:23.083Z,100554.84
2022-09-06T03:20:27.250Z,100551.03
2022-09-06T03:25:29.912Z,100550.31
2022-09-06T03:30:32.745Z,100537.34
2022-09-06T03:35:36.779Z,100527.72
2022-09-06T03:40:39.492Z,100519.72
2022-09-06T03:45:46.770Z,100521.72
2022-09-06T03:50:52.756Z,100515.91
2022-09-06T03:55:57.512Z,100509.09
2022-09-06T04:01:05.577Z,100499.59
2022-09-06T04:06:10.082Z,100503.22
2022-09-06T04:11:12.746Z,100500.72
2022-09-06T04:16:17.601Z,100501.03
2022-09-06T04:21:21.739Z,100495.25
2022-09-06T04:26:24.472Z,100480.91
2022-09-06T04:31:27.469Z,100481.69
2022-09-06T04:36:31.463Z,100481.47
2022-09-06T04:41:34.118Z,100462.63
2022-09-06T04:46:36.830Z,100465.84
2022-09-06T04:51:40.955Z,100466.88
2022-09-06T04:56:43.630Z,100481.34
2022-09-06T05:01:46.305Z,100495.72
2022-09-06T05:06:50.627Z,100501.50
2022-09-06T05:11:53.641Z,100501.59
2022-09-06T05:16:56.407Z,100501.13
2022-09-06T05:22:00.441Z,100492.84
2022-09-06T05:27:04.377Z,100480.16
2022-09-06T05:32:07.458Z,100483.88
2022-09-06T05:37:11.481Z,100477.22
2022-09-06T05:42:19.015Z,100486.31
2022-09-06T05:47:22.011Z,100491.25
2022-09-06T05:52:25.994Z,100476.47
2022-09-06T05:57:31.436Z,100474.63
2022-09-06T06:02:34.130Z,100471.59
2022-09-06T06:07:38.131Z,100468.13
2022-09-06T06:12:40.802Z,100469.31
2022-09-06T06:17:43.451Z,100468.94
2022-09-06T06:22:47.406Z,100481.47
2022-09-06T06:27:50.124Z,100473.72
2022-09-06T06:32:52.767Z,100468.22
2022-09-06T06:37:57.041Z,100481.81
2022-09-06T06:43:00.399Z,100479.63
2022-09-06T06:48:03.559Z,100482.75
2022-09-06T06:53:07.540Z,100477.25
2022-09-06T06:58:10.333Z,100485.69
2022-09-06T07:03:14.017Z,100479.16
2022-09-06T07:08:18.395Z,100482.88
2022-09-06T07:13:21.173Z,100484.22
2022-09-06T07:18:23.973Z,100491.78
2022-09-06T07:28:53.296Z,100493.75
2022-09-06T07:33:56.130Z,100487.03
2022-09-06T07:39:00.360Z,100486.00
2022-09-06T07:44:03.757Z,100482.13
2022-09-06T07:49:06.791Z,100487.03
2022-09-06T07:54:29.906Z,100480.47
2022-09-06T07:59:33.395Z,100474.78
2022-09-06T08:04:36.065Z,100489.59
2022-09-06T08:09:40.112Z,100484.53
2022-09-06T08:14:42.774Z,100487.84
2022-09-06T08:19:45.449Z,100486.41
2022-09-06T08:24:49.504Z,100487.44
2022-09-06T08:29:52.351Z,100490.31
2022-09-06T08:34:55.083Z,100491.75
2022-09-06T08:39:59.312Z,100493.16
2022-09-06T08:45:04.173Z,100476.50
2022-09-06T08:50:08.437Z,100488.41
2022-09-06T08:55:21.242Z,100476.13
2022-09-06T09:00:24.063Z,100466.91
2022-09-06T09:05:29.237Z,100459.06
2022-09-06T09:10:41.915Z,100450.38
2022-09-06T09:15:44.644Z,100456.00
2022-09-06T09:20:47.294Z,100449.69
2022-09-06T09:25:53.542Z,100442.66
2022-09-06T09:30:57.791Z,100436.75
2022-09-06T09:36:02.421Z,100438.34
2022-09-06T09:41:08.042Z,100426.53
2022-09-06T09:46:16.799Z,100410.16
2022-09-06T09:51:26.609Z,100402.63
2022-09-06T09:56:35.588Z,100397.28
2022-09-06T10:01:39.642Z,100393.22
2022-09-06T10:12:07.368Z,100381.59
2022-09-06T10:17:19.465Z,100369.00
2022-09-06T10:22:27.538Z,100367.38
2022-09-06T10:27:33.136Z,100368.16
2022-09-06T10:32:42.435Z,100370.59
2022-09-06T10:38:04.531Z,100361.53
2022-09-06T10:43:10.334Z,100364.81
2022-09-06T10:48:18.120Z,100362.91
2022-09-06T10:53:33.846Z,100366.56
2022-09-06T11:04:12.775Z,100387.47
2022-09-06T11:09:23.860Z,100384.94
2022-09-06T11:14:28.730Z,100390.69
2022-09-06T11:19:34.860Z,100395.06
2022-09-06T11:24:48.716Z,100396.13
2022-09-06T11:29:56.444Z,100397.91
2022-09-06T11:35:00.827Z,100405.47
2022-09-06T11:45:45.429Z,100414.03
2022-09-06T11:51:03.295Z,100411.69
2022-09-06T11:56:25.726Z,100393.72
2022-09-06T12:01:38.266Z,100395.44
2022-09-06T12:06:43.648Z,100397.34
2022-09-06T12:11:48.568Z,100394.44
2022-09-06T12:17:28.124Z,100395.03
2022-09-06T12:23:02.199Z,100388.53
2022-09-06T12:28:06.384Z,100390.09
2022-09-06T12:33:13.928Z,100400.81
2022-09-06T12:38:18.190Z,100393.56
2022-09-06T12:43:21.097Z,100400.63
2022-09-06T12:48:28.726Z,100399.16
2022-09-06T12:53:34.398Z,100386.97
2022-09-06T12:58:38.683Z,100377.91
2022-09-06T13:03:45.169Z,100364.50
2022-09-06T13:08:50.992Z,100359.41
2022-09-06T13:13:55.121Z,100349.56
2022-09-06T13:19:11.692Z,100347.03
2022-09-06T13:24:23.025Z,100340.72
2022-09-06T13:29:27.477Z,100337.91
2022-09-06T13:34:32.117Z,100329.75
2022-09-06T13:39:38.562Z,100340.22
2022-09-06T13:44:41.394Z,100346.72
2022-09-06T13:49:44.235Z,100350.53
2022-09-06T13:54:48.748Z,100346.00
2022-09-06T13:59:51.371Z,100343.53
2022-09-06T14:04:54.026Z,100344.25
2022-09-06T14:09:58.063Z,100350.84
2022-09-06T14:15:00.891Z,100347.00
2022-09-06T14:20:04.187Z,100345.63
2022-09-06T14:25:09.437Z,100343.72
2022-09-06T14:30:13.560Z,100346.22
2022-09-06T14:35:16.358Z,100349.09
2022-09-06T14:40:20.484Z,100345.69
2022-09-06T14:45:23.238Z,100339.16
2022-09-06T14:50:25.941Z,100337.53
2022-09-06T14:55:30.723Z,100331.91
2022-09-06T15:00:33.683Z,100332.09
2022-09-06T15:05:36.511Z,100329.31
2022-09-06T15:10:41.024Z,100326.09
2022-09-06T15:15:44.127Z,100315.53
2022-09-06T15:20:47.071Z,100321.81
2022-09-06T15:25:52.310Z,100314.34
2022-09-06T15:30:55.829Z,100314.34
2022-09-06T15:36:00.521Z,100304.63
2022-09-06T15:41:09.348Z,100294.34
2022-09-06T15:46:12.316Z,100291.53
2022-09-06T15:51:16.407Z,100287.50
2022-09-06T15:56:20.642Z,100274.16
2022-09-06T16:01:24.453Z,100265.00
2022-09-06T16:06:28.637Z,100267.59
2022-09-06T16:11:35.715Z,100268.66
2022-09-06T16:16:40.523Z,100259.97
2022-09-06T16:21:44.440Z,100257.41
2022-09-06T16:26:48.584Z,100258.00
2022-09-06T16:31:54.090Z,100254.47
2022-09-06T16:36:57.087Z,100248.06
2022-09-06T16:42:01.265Z,100248.84
2022-09-06T16:47:04.578Z,100234.50
2022-09-06T16:52:07.345Z,100236.69
2022-09-06T16:57:11.417Z,100240.66
2022-09-06T17:02:14.495Z,100237.78
2022-09-06T17:07:17.821Z,100239.47
2022-09-06T17:12:22.191Z,100243.88
2022-09-06T17:17:24.885Z,100243.16
2022-09-06T17:22:27.734Z,100225.97
2022-09-06T17:27:32.089Z,100228.13
2022-09-06T17:32:36.575Z,100221.94
2022-09-06T17:37:39.332Z,100216.94
2022-09-06T17:42:43.464Z,100226.28
2022-09-06T17:47:46.197Z,100230.13
2022-09-06T17:52:51.528Z,100222.41
2022-09-06T17:57:56.084Z,100234.81
2022-09-06T18:02:59.133Z,100242.25
2022-09-06T18:08:02.247Z,100238.22
2022-09-06T18:13:07.101Z,100240.72
2022-09-06T18:18:10.059Z,100234.16
2022-09-06T18:23:12.932Z,100225.81
2022-09-06T18:28:17.119Z,100228.28
2022-09-06T18:33:19.931Z,100234.06
2022-09-06T18:38:22.778Z,100231.22
2022-09-06T18:43:29.527Z,100238.66
2022-09-06T18:48:33.706Z,100248.50
2022-09-06T18:53:36.628Z,100242.16
2022-09-06T18:58:41.036Z,100245.66
2022-09-06T19:03:44.389Z,100248.34
2022-09-06T19:08:47.838Z,100249.63
2022-09-06T19:13:53.651Z,100252.50
2022-09-06T19:18:57.369Z,100250.25
2022-09-06T19:24:01.634Z,100253.34
2022-09-06T19:29:09.118Z,100256.00
2022-09-06T19:34:13.489Z,100250.88
2022-09-06T19:39:17.482Z,100244.13
2022-09-06T19:44:22.209Z,100239.00
2022-09-06T19:49:25.154Z,100224.25
2022-09-06T19:54:28.327Z,100220.38
2022-09-06T19:59:33.448Z,100210.13
2022-09-06T20:04:36.158Z,100204.81
2022-09-06T20:09:38.947Z,100198.47
2022-09-06T20:14:43.367Z,100198.69
2022-09-06T20:19:46.223Z,100190.50
2022-09-06T20:24:48.919Z,100202.16
2022-09-06T20:29:53.021Z,100197.44
2022-09-06T20:34:55.697Z,100193.38
2022-09-06T20:39:58.490Z,100196.22
2022-09-06T20:45:03.527Z,100198.47
2022-09-06T20:50:07.172Z,100201.31
2022-09-06T20:55:10.618Z,100185.19
2022-09-06T21:00:15.948Z,100185.97
2022-09-06T21:05:18.644Z,100172.47
2022-09-06T21:10:21.373Z,100182.94
2022-09-06T21:15:25.476Z,100175.56
2022-09-06T21:20:28.239Z,100173.88
2022-09-06T21:25:31.128Z,100177.13
2022-09-06T21:30:35.507Z,100167.13
2022-09-06T21:35:38.400Z,100169.38
2022-09-06T21:40:41.185Z,100165.69
2022-09-06T21:45:45.786Z,100163.22
2022-09-06T21:50:49.020Z,100165.06
2022-09-06T21:55:52.000Z,100165.06
2022-09-06T22:00:59.190Z,100162.19
2022-09-06T22:06:09.514Z,100164.66
2022-09-06T22:11:14.469Z,100159.94
2022-09-06T22:16:22.697Z,100166.88
2022-09-06T22:21:25.683Z,100158.50
2022-09-06T22:26:30.149Z,100157.03
2022-09-06T22:31:35.172Z,100157.66
2022-09-06T22:36:38.071Z,100151.72
2022-09-06T22:41:40.861Z,100146.81
2022-09-06T22:46:45.219Z,100148.22
2022-09-06T22:51:48.131Z,100154.53
2022-09-06T22:56:50.996Z,100141.44
2022-09-06T23:01:55.072Z,100143.72
2022-09-06T23:06:57.832Z,100143.06
2022-09-06T23:12:01.250Z,100135.69
2022-09-06T23:17:05.527Z,100125.66
2022-09-06T23:22:08.270Z,100128.72
2022-09-06T23:27:11.027Z,100129.53
2022-09-06T23:32:15.144Z,100130.97
2022-09-06T23:37:19.089Z,100113.19
2022-09-06T23:42:22.994Z,100112.78
2022-09-06T23:47:27.103Z,100104.19
2022-09-06T23:52:29.917Z,100096.22
2022-09-06T23:57:32.684Z,100095.19
